sensor_id;sensor_type;location;lat;lon;timestamp;temperature;humidity
14749;DHT22;7466;53.574;9.976;2023-03-21T00:00:58;7.60;99.90
14749;DHT22;7466;53.574;9.976;2023-03-21T00:03:25;7.60;99.90
14749;DHT22;7466;53.574;9.976;2023-03-21T00:05:52;7.60;99.90
14749;DHT22;7466;53.574;9.976;2023-03-21T00:08:22;7.60;99.90
14749;DHT22;7466;53.574;9.976;2023-03-21T00:10:55;7.60;99.90
14749;DHT22;7466;53.574;9.976;2023-03-21T00:13:22;7.60;99.90
14749;DHT22;7466;53.574;9.976;2023-03-21T00:15:51;7.70;99.90
14749;DHT22;7466;53.574;9.976;2023-03-21T00:18:19;7.70;99.90
14749;DHT22;7466;53.574;9.976;2023-03-21T00:20:55;7.70;99.90
14749;DHT22;7466;53.574;9.976;2023-03-21T00:23:24;7.70;99.90
14749;DHT22;7466;53.574;9.976;2023-03-21T00:25:51;7.60;99.90
14749;DHT22;7466;53.574;9.976;2023-03-21T00:28:19;7.70;99.90
14749;DHT22;7466;53.574;9.976;2023-03-21T00:30:45;7.60;99.90
14749;DHT22;7466;53.574;9.976;2023-03-21T00:33:13;7.60;99.90
14749;DHT22;7466;53.574;9.976;2023-03-21T00:35:40;7.60;99.90
14749;DHT22;7466;53.574;9.976;2023-03-21T00:38:09;7.60;99.90
14749;DHT22;7466;53.574;9.976;2023-03-21T00:40:37;7.60;99.90
14749;DHT22;7466;53.574;9.976;2023-03-21T00:43:04;7.60;99.90
14749;DHT22;7466;53.574;9.976;2023-03-21T00:45:31;7.60;99.90
14749;DHT22;7466;53.574;9.976;2023-03-21T00:47:58;7.60;99.90
14749;DHT22;7466;53.574;9.976;2023-03-21T00:50:26;7.60;99.90
14749;DHT22;7466;53.574;9.976;2023-03-21T00:52:53;7.60;99.90
14749;DHT22;7466;53.574;9.976;2023-03-21T00:55:20;7.60;99.90
14749;DHT22;7466;53.574;9.976;2023-03-21T00:57:48;7.70;99.90
14749;DHT22;7466;53.574;9.976;2023-03-21T01:00:16;7.60;99.90
14749;DHT22;7466;53.574;9.976;2023-03-21T01:02:44;7.60;99.90
14749;DHT22;7466;53.574;9.976;2023-03-21T01:05:21;7.60;99.90
14749;DHT22;7466;53.574;9.976;2023-03-21T01:08:08;7.60;99.90
14749;DHT22;7466;53.574;9.976;2023-03-21T01:10:38;7.60;99.90
14749;DHT22;7466;53.574;9.976;2023-03-21T01:13:06;7.60;99.90
14749;DHT22;7466;53.574;9.976;2023-03-21T01:15:35;7.60;99.90
14749;DHT22;7466;53.574;9.976;2023-03-21T01:18:02;7.70;99.90
14749;DHT22;7466;53.574;9.976;2023-03-21T01:20:29;7.60;99.90
14749;DHT22;7466;53.574;9.976;2023-03-21T01:22:56;7.60;99.90
14749;DHT22;7466;53.574;9.976;2023-03-21T01:25:23;7.60;99.90
14749;DHT22;7466;53.574;9.976;2023-03-21T01:27:50;7.70;99.90
14749;DHT22;7466;53.574;9.976;2023-03-21T01:30:18;7.70;99.90
14749;DHT22;7466;53.574;9.976;2023-03-21T01:32:45;7.60;99.90
14749;DHT22;7466;53.574;9.976;2023-03-21T01:35:12;7.70;99.90
14749;DHT22;7466;53.574;9.976;2023-03-21T01:37:39;7.70;99.90
14749;DHT22;7466;53.574;9.976;2023-03-21T01:40:07;7.70;99.90
14749;DHT22;7466;53.574;9.976;2023-03-21T01:42:37;7.70;99.90
14749;DHT22;7466;53.574;9.976;2023-03-21T01:48:14;7.70;99.90
14749;DHT22;7466;53.574;9.976;2023-03-21T01:50:42;7.70;99.90
14749;DHT22;7466;53.574;9.976;2023-03-21T01:53:34;7.70;99.90
14749;DHT22;7466;53.574;9.976;2023-03-21T01:56:07;7.70;99.90
14749;DHT22;7466;53.574;9.976;2023-03-21T01:58:35;7.70;99.90
14749;DHT22;7466;53.574;9.976;2023-03-21T02:01:05;7.70;99.90
14749;DHT22;7466;53.574;9.976;2023-03-21T02:03:34;7.70;99.90
14749;DHT22;7466;53.574;9.976;2023-03-21T02:06:07;7.70;99.90
14749;DHT22;7466;53.574;9.976;2023-03-21T02:08:35;7.70;99.90
14749;DHT22;7466;53.574;9.976;2023-03-21T02:11:04;7.70;99.90
14749;DHT22;7466;53.574;9.976;2023-03-21T02:13:31;7.70;99.90
14749;DHT22;7466;53.574;9.976;2023-03-21T02:16:01;7.80;99.90
14749;DHT22;7466;53.574;9.976;2023-03-21T02:18:37;7.80;99.90
14749;DHT22;7466;53.574;9.976;2023-03-21T02:21:29;7.70;99.90
14749;DHT22;7466;53.574;9.976;2023-03-21T02:27:11;7.80;99.90
14749;DHT22;7466;53.574;9.976;2023-03-21T02:30:09;7.80;99.90
14749;DHT22;7466;53.574;9.976;2023-03-21T02:32:54;7.80;99.90
14749;DHT22;7466;53.574;9.976;2023-03-21T02:35:37;7.80;99.90
14749;DHT22;7466;53.574;9.976;2023-03-21T02:38:15;7.80;99.90
14749;DHT22;7466;53.574;9.976;2023-03-21T02:40:48;7.80;99.90
14749;DHT22;7466;53.574;9.976;2023-03-21T02:43:21;7.80;99.90
14749;DHT22;7466;53.574;9.976;2023-03-21T02:45:52;7.80;99.90
14749;DHT22;7466;53.574;9.976;2023-03-21T02:48:23;7.90;99.90
14749;DHT22;7466;53.574;9.976;2023-03-21T02:50:53;7.90;99.90
14749;DHT22;7466;53.574;9.976;2023-03-21T02:53:25;7.90;99.90
14749;DHT22;7466;53.574;9.976;2023-03-21T02:55:54;7.90;99.90
14749;DHT22;7466;53.574;9.976;2023-03-21T02:58:23;7.90;99.90
14749;DHT22;7466;53.574;9.976;2023-03-21T03:00:51;7.90;99.90
14749;DHT22;7466;53.574;9.976;2023-03-21T03:03:20;7.90;99.90
14749;DHT22;7466;53.574;9.976;2023-03-21T03:05:48;7.90;99.90
14749;DHT22;7466;53.574;9.976;2023-03-21T03:08:26;7.90;99.90
14749;DHT22;7466;53.574;9.976;2023-03-21T03:11:23;7.90;99.90
14749;DHT22;7466;53.574;9.976;2023-03-21T03:14:06;8.00;99.90
14749;DHT22;7466;53.574;9.976;2023-03-21T03:16:40;8.00;99.90
14749;DHT22;7466;53.574;9.976;2023-03-21T03:19:10;8.00;99.90
14749;DHT22;7466;53.574;9.976;2023-03-21T03:21:45;7.90;99.90
14749;DHT22;7466;53.574;9.976;2023-03-21T03:24:19;8.00;99.90
14749;DHT22;7466;53.574;9.976;2023-03-21T03:26:51;8.00;99.90
14749;DHT22;7466;53.574;9.976;2023-03-21T03:29:21;8.00;99.90
14749;DHT22;7466;53.574;9.976;2023-03-21T03:31:52;8.00;99.90
14749;DHT22;7466;53.574;9.976;2023-03-21T03:34:23;8.00;99.90
14749;DHT22;7466;53.574;9.976;2023-03-21T03:36:53;8.00;99.90
14749;DHT22;7466;53.574;9.976;2023-03-21T03:39:26;8.10;99.90
14749;DHT22;7466;53.574;9.976;2023-03-21T03:41:59;8.10;99.90
14749;DHT22;7466;53.574;9.976;2023-03-21T03:44:26;8.00;99.90
14749;DHT22;7466;53.574;9.976;2023-03-21T03:46:58;8.10;99.90
14749;DHT22;7466;53.574;9.976;2023-03-21T03:49:31;8.10;99.90
14749;DHT22;7466;53.574;9.976;2023-03-21T03:52:03;8.10;99.90
14749;DHT22;7466;53.574;9.976;2023-03-21T03:54:37;8.00;99.90
14749;DHT22;7466;53.574;9.976;2023-03-21T03:57:05;8.00;99.90
14749;DHT22;7466;53.574;9.976;2023-03-21T03:59:33;8.00;99.90
14749;DHT22;7466;53.574;9.976;2023-03-21T04:02:01;8.00;99.90
14749;DHT22;7466;53.574;9.976;2023-03-21T04:04:28;8.00;99.90
14749;DHT22;7466;53.574;9.976;2023-03-21T04:06:56;8.00;99.90
14749;DHT22;7466;53.574;9.976;2023-03-21T04:09:24;8.00;99.90
14749;DHT22;7466;53.574;9.976;2023-03-21T04:11:55;8.00;99.90
14749;DHT22;7466;53.574;9.976;2023-03-21T04:14:23;8.00;99.90
14749;DHT22;7466;53.574;9.976;2023-03-21T04:16:50;8.00;99.90
14749;DHT22;7466;53.574;9.976;2023-03-21T04:19:19;8.00;99.90
14749;DHT22;7466;53.574;9.976;2023-03-21T04:21:46;8.10;99.90
14749;DHT22;7466;53.574;9.976;2023-03-21T04:24:13;8.00;99.90
14749;DHT22;7466;53.574;9.976;2023-03-21T04:26:40;8.00;99.90
14749;DHT22;7466;53.574;9.976;2023-03-21T04:29:14;8.10;99.90
14749;DHT22;7466;53.574;9.976;2023-03-21T04:31:40;8.10;99.90
14749;DHT22;7466;53.574;9.976;2023-03-21T04:34:07;8.10;99.90
14749;DHT22;7466;53.574;9.976;2023-03-21T04:36:37;8.10;99.90
14749;DHT22;7466;53.574;9.976;2023-03-21T04:39:09;8.10;99.90
14749;DHT22;7466;53.574;9.976;2023-03-21T04:41:37;8.10;99.90
14749;DHT22;7466;53.574;9.976;2023-03-21T04:44:04;8.20;99.90
14749;DHT22;7466;53.574;9.976;2023-03-21T04:46:33;8.20;99.90
14749;DHT22;7466;53.574;9.976;2023-03-21T04:49:01;8.20;99.90
14749;DHT22;7466;53.574;9.976;2023-03-21T04:51:28;8.20;99.90
14749;DHT22;7466;53.574;9.976;2023-03-21T04:53:55;8.20;99.90
14749;DHT22;7466;53.574;9.976;2023-03-21T04:56:23;8.20;99.90
14749;DHT22;7466;53.574;9.976;2023-03-21T04:58:55;8.20;99.90
14749;DHT22;7466;53.574;9.976;2023-03-21T05:01:22;8.20;99.90
14749;DHT22;7466;53.574;9.976;2023-03-21T05:03:51;8.20;99.90
14749;DHT22;7466;53.574;9.976;2023-03-21T05:06:19;8.20;99.90
14749;DHT22;7466;53.574;9.976;2023-03-21T05:08:46;8.20;99.90
14749;DHT22;7466;53.574;9.976;2023-03-21T05:11:12;8.20;99.90
14749;DHT22;7466;53.574;9.976;2023-03-21T05:13:42;8.20;99.90
14749;DHT22;7466;53.574;9.976;2023-03-21T05:16:09;8.20;99.90
14749;DHT22;7466;53.574;9.976;2023-03-21T05:18:38;8.20;99.90
14749;DHT22;7466;53.574;9.976;2023-03-21T05:21:06;8.20;99.90
14749;DHT22;7466;53.574;9.976;2023-03-21T05:23:35;8.20;99.90
14749;DHT22;7466;53.574;9.976;2023-03-21T05:26:04;8.20;99.90
14749;DHT22;7466;53.574;9.976;2023-03-21T05:28:31;8.20;99.90
14749;DHT22;7466;53.574;9.976;2023-03-21T05:31:01;8.20;99.90
14749;DHT22;7466;53.574;9.976;2023-03-21T05:33:28;8.20;99.90
14749;DHT22;7466;53.574;9.976;2023-03-21T05:35:54;8.20;99.90
14749;DHT22;7466;53.574;9.976;2023-03-21T05:38:24;8.20;99.90
14749;DHT22;7466;53.574;9.976;2023-03-21T05:40:52;8.20;99.90
14749;DHT22;7466;53.574;9.976;2023-03-21T05:43:19;8.20;99.90
14749;DHT22;7466;53.574;9.976;2023-03-21T05:45:46;8.20;99.90
14749;DHT22;7466;53.574;9.976;2023-03-21T05:48:13;8.20;99.90
14749;DHT22;7466;53.574;9.976;2023-03-21T05:50:41;8.20;99.90
14749;DHT22;7466;53.574;9.976;2023-03-21T05:53:08;8.20;99.90
14749;DHT22;7466;53.574;9.976;2023-03-21T05:55:37;8.30;99.90
14749;DHT22;7466;53.574;9.976;2023-03-21T05:58:05;8.30;99.90
14749;DHT22;7466;53.574;9.976;2023-03-21T06:00:31;8.30;99.90
14749;DHT22;7466;53.574;9.976;2023-03-21T06:03:11;8.30;99.90
14749;DHT22;7466;53.574;9.976;2023-03-21T06:05:38;8.30;99.90
14749;DHT22;7466;53.574;9.976;2023-03-21T06:08:06;8.30;99.90
14749;DHT22;7466;53.574;9.976;2023-03-21T06:10:36;8.30;99.90
14749;DHT22;7466;53.574;9.976;2023-03-21T06:13:03;8.30;99.90
14749;DHT22;7466;53.574;9.976;2023-03-21T06:15:30;8.30;99.90
14749;DHT22;7466;53.574;9.976;2023-03-21T06:18:14;8.30;99.90
14749;DHT22;7466;53.574;9.976;2023-03-21T06:20:41;8.40;99.90
14749;DHT22;7466;53.574;9.976;2023-03-21T06:23:08;8.30;99.90
14749;DHT22;7466;53.574;9.976;2023-03-21T06:25:38;8.30;99.90
14749;DHT22;7466;53.574;9.976;2023-03-21T06:28:05;8.30;99.90
14749;DHT22;7466;53.574;9.976;2023-03-21T06:30:34;8.30;99.90
14749;DHT22;7466;53.574;9.976;2023-03-21T06:33:11;8.30;99.90
14749;DHT22;7466;53.574;9.976;2023-03-21T06:35:38;8.30;99.90
14749;DHT22;7466;53.574;9.976;2023-03-21T06:38:08;8.30;99.90
14749;DHT22;7466;53.574;9.976;2023-03-21T06:40:38;8.30;99.90
14749;DHT22;7466;53.574;9.976;2023-03-21T06:43:05;8.30;99.90
14749;DHT22;7466;53.574;9.976;2023-03-21T06:45:32;8.30;99.90
14749;DHT22;7466;53.574;9.976;2023-03-21T06:48:00;8.30;99.90
14749;DHT22;7466;53.574;9.976;2023-03-21T06:50:26;8.30;99.90
14749;DHT22;7466;53.574;9.976;2023-03-21T06:52:54;8.40;99.90
14749;DHT22;7466;53.574;9.976;2023-03-21T06:55:22;8.40;99.90
14749;DHT22;7466;53.574;9.976;2023-03-21T06:57:53;8.40;99.90
14749;DHT22;7466;53.574;9.976;2023-03-21T07:00:27;8.50;99.90
14749;DHT22;7466;53.574;9.976;2023-03-21T07:02:54;8.50;99.90
14749;DHT22;7466;53.574;9.976;2023-03-21T07:05:31;8.60;99.90
14749;DHT22;7466;53.574;9.976;2023-03-21T07:07:57;8.60;99.90
14749;DHT22;7466;53.574;9.976;2023-03-21T07:10:37;8.60;99.90
14749;DHT22;7466;53.574;9.976;2023-03-21T07:13:06;8.70;99.90
14749;DHT22;7466;53.574;9.976;2023-03-21T07:15:33;8.60;99.90
14749;DHT22;7466;53.574;9.976;2023-03-21T07:18:02;8.70;99.90
14749;DHT22;7466;53.574;9.976;2023-03-21T07:20:30;8.70;99.90
14749;DHT22;7466;53.574;9.976;2023-03-21T07:22:57;8.70;99.90
14749;DHT22;7466;53.574;9.976;2023-03-21T07:25:24;8.70;99.90
14749;DHT22;7466;53.574;9.976;2023-03-21T07:27:51;8.80;99.90
14749;DHT22;7466;53.574;9.976;2023-03-21T07:30:20;8.80;99.90
14749;DHT22;7466;53.574;9.976;2023-03-21T07:32:51;8.80;99.90
14749;DHT22;7466;53.574;9.976;2023-03-21T07:35:19;8.80;99.90
14749;DHT22;7466;53.574;9.976;2023-03-21T07:37:46;8.80;99.90
14749;DHT22;7466;53.574;9.976;2023-03-21T07:40:14;8.80;99.90
14749;DHT22;7466;53.574;9.976;2023-03-21T07:42:41;8.80;99.90
14749;DHT22;7466;53.574;9.976;2023-03-21T07:45:11;8.90;99.90
14749;DHT22;7466;53.574;9.976;2023-03-21T07:47:41;8.90;99.90
14749;DHT22;7466;53.574;9.976;2023-03-21T07:50:17;8.90;99.90
14749;DHT22;7466;53.574;9.976;2023-03-21T07:52:45;8.90;99.90
14749;DHT22;7466;53.574;9.976;2023-03-21T07:55:12;9.00;99.90
14749;DHT22;7466;53.574;9.976;2023-03-21T07:57:49;9.00;99.90
14749;DHT22;7466;53.574;9.976;2023-03-21T08:00:24;9.00;99.90
14749;DHT22;7466;53.574;9.976;2023-03-21T08:02:54;9.00;99.90
14749;DHT22;7466;53.574;9.976;2023-03-21T08:05:21;9.00;99.90
14749;DHT22;7466;53.574;9.976;2023-03-21T08:07:48;9.00;99.90
14749;DHT22;7466;53.574;9.976;2023-03-21T08:10:16;9.10;99.90
14749;DHT22;7466;53.574;9.976;2023-03-21T08:12:43;9.10;99.90
14749;DHT22;7466;53.574;9.976;2023-03-21T08:15:26;9.10;99.90
14749;DHT22;7466;53.574;9.976;2023-03-21T08:18:05;9.10;99.90
14749;DHT22;7466;53.574;9.976;2023-03-21T08:20:40;9.10;99.90
14749;DHT22;7466;53.574;9.976;2023-03-21T08:23:07;9.10;99.90
14749;DHT22;7466;53.574;9.976;2023-03-21T08:25:41;9.10;99.90
14749;DHT22;7466;53.574;9.976;2023-03-21T08:28:08;9.20;99.90
14749;DHT22;7466;53.574;9.976;2023-03-21T08:30:36;9.20;99.90
14749;DHT22;7466;53.574;9.976;2023-03-21T08:33:04;9.20;99.90
14749;DHT22;7466;53.574;9.976;2023-03-21T08:35:32;9.30;99.90
14749;DHT22;7466;53.574;9.976;2023-03-21T08:38:00;9.20;99.90
14749;DHT22;7466;53.574;9.976;2023-03-21T08:40:27;9.30;99.90
14749;DHT22;7466;53.574;9.976;2023-03-21T08:42:54;9.30;99.90
14749;DHT22;7466;53.574;9.976;2023-03-21T08:45:21;9.30;99.90
14749;DHT22;7466;53.574;9.976;2023-03-21T08:47:48;9.30;99.90
14749;DHT22;7466;53.574;9.976;2023-03-21T08:50:23;9.30;99.90
14749;DHT22;7466;53.574;9.976;2023-03-21T08:52:54;9.30;99.90
14749;DHT22;7466;53.574;9.976;2023-03-21T08:55:21;9.20;99.90
14749;DHT22;7466;53.574;9.976;2023-03-21T08:57:48;9.30;99.90
14749;DHT22;7466;53.574;9.976;2023-03-21T09:00:29;9.30;99.90
14749;DHT22;7466;53.574;9.976;2023-03-21T09:02:56;9.30;99.90
14749;DHT22;7466;53.574;9.976;2023-03-21T09:05:24;9.30;99.90
14749;DHT22;7466;53.574;9.976;2023-03-21T09:07:52;9.30;99.90
14749;DHT22;7466;53.574;9.976;2023-03-21T09:10:21;9.40;99.90
14749;DHT22;7466;53.574;9.976;2023-03-21T09:12:48;9.40;99.90
14749;DHT22;7466;53.574;9.976;2023-03-21T09:15:16;9.40;99.90
14749;DHT22;7466;53.574;9.976;2023-03-21T09:17:45;9.50;99.90
14749;DHT22;7466;53.574;9.976;2023-03-21T09:20:14;9.50;99.90
14749;DHT22;7466;53.574;9.976;2023-03-21T09:22:45;9.60;99.90
14749;DHT22;7466;53.574;9.976;2023-03-21T09:25:12;9.60;99.90
14749;DHT22;7466;53.574;9.976;2023-03-21T09:27:40;9.60;99.90
14749;DHT22;7466;53.574;9.976;2023-03-21T09:30:08;9.70;99.90
14749;DHT22;7466;53.574;9.976;2023-03-21T09:32:36;9.60;99.90
14749;DHT22;7466;53.574;9.976;2023-03-21T09:35:03;9.60;99.90
14749;DHT22;7466;53.574;9.976;2023-03-21T09:37:31;9.70;99.90
14749;DHT22;7466;53.574;9.976;2023-03-21T09:39:59;9.80;99.90
14749;DHT22;7466;53.574;9.976;2023-03-21T09:42:32;9.70;99.90
14749;DHT22;7466;53.574;9.976;2023-03-21T09:45:09;9.80;99.90
14749;DHT22;7466;53.574;9.976;2023-03-21T09:47:40;9.80;99.90
14749;DHT22;7466;53.574;9.976;2023-03-21T09:50:21;9.80;99.90
14749;DHT22;7466;53.574;9.976;2023-03-21T09:52:55;9.90;99.90
14749;DHT22;7466;53.574;9.976;2023-03-21T09:55:26;9.90;99.90
14749;DHT22;7466;53.574;9.976;2023-03-21T09:58:04;10.00;99.90
14749;DHT22;7466;53.574;9.976;2023-03-21T10:00:35;10.00;99.90
14749;DHT22;7466;53.574;9.976;2023-03-21T10:03:05;10.00;99.90
14749;DHT22;7466;53.574;9.976;2023-03-21T10:05:35;10.00;99.90
14749;DHT22;7466;53.574;9.976;2023-03-21T10:08:07;10.00;99.90
14749;DHT22;7466;53.574;9.976;2023-03-21T10:10:45;10.00;99.90
14749;DHT22;7466;53.574;9.976;2023-03-21T10:13:14;10.10;99.90
14749;DHT22;7466;53.574;9.976;2023-03-21T10:15:42;10.10;99.90
14749;DHT22;7466;53.574;9.976;2023-03-21T10:18:12;10.20;99.90
14749;DHT22;7466;53.574;9.976;2023-03-21T10:20:44;10.10;99.90
14749;DHT22;7466;53.574;9.976;2023-03-21T10:23:14;10.20;99.90
14749;DHT22;7466;53.574;9.976;2023-03-21T10:25:45;10.10;99.90
14749;DHT22;7466;53.574;9.976;2023-03-21T10:28:16;10.10;99.90
14749;DHT22;7466;53.574;9.976;2023-03-21T10:30:45;10.10;99.90
14749;DHT22;7466;53.574;9.976;2023-03-21T10:33:15;10.10;99.90
14749;DHT22;7466;53.574;9.976;2023-03-21T10:35:48;10.10;99.90
14749;DHT22;7466;53.574;9.976;2023-03-21T10:38:18;10.20;99.90
14749;DHT22;7466;53.574;9.976;2023-03-21T10:40:48;10.10;99.90
14749;DHT22;7466;53.574;9.976;2023-03-21T10:43:18;10.10;99.90
14749;DHT22;7466;53.574;9.976;2023-03-21T10:45:45;10.20;99.90
14749;DHT22;7466;53.574;9.976;2023-03-21T10:48:13;10.20;99.90
14749;DHT22;7466;53.574;9.976;2023-03-21T10:50:40;10.10;99.90
14749;DHT22;7466;53.574;9.976;2023-03-21T10:53:14;10.10;99.90
14749;DHT22;7466;53.574;9.976;2023-03-21T10:55:46;10.10;99.90
14749;DHT22;7466;53.574;9.976;2023-03-21T10:58:17;10.10;99.90
14749;DHT22;7466;53.574;9.976;2023-03-21T11:00:53;10.10;99.90
14749;DHT22;7466;53.574;9.976;2023-03-21T11:03:24;10.10;99.90
14749;DHT22;7466;53.574;9.976;2023-03-21T11:05:55;10.10;99.90
14749;DHT22;7466;53.574;9.976;2023-03-21T11:08:22;10.10;99.90
14749;DHT22;7466;53.574;9.976;2023-03-21T11:10:52;10.10;99.90
14749;DHT22;7466;53.574;9.976;2023-03-21T11:13:24;10.10;99.90
14749;DHT22;7466;53.574;9.976;2023-03-21T11:15:53;10.00;99.90
14749;DHT22;7466;53.574;9.976;2023-03-21T11:18:30;10.10;99.90
14749;DHT22;7466;53.574;9.976;2023-03-21T11:21:01;10.10;99.90
14749;DHT22;7466;53.574;9.976;2023-03-21T11:23:31;10.10;99.90
14749;DHT22;7466;53.574;9.976;2023-03-21T11:26:01;10.10;99.90
14749;DHT22;7466;53.574;9.976;2023-03-21T11:28:36;10.10;99.90
14749;DHT22;7466;53.574;9.976;2023-03-21T11:31:04;10.10;99.90
14749;DHT22;7466;53.574;9.976;2023-03-21T11:33:35;10.10;99.90
14749;DHT22;7466;53.574;9.976;2023-03-21T11:36:07;10.10;99.90
14749;DHT22;7466;53.574;9.976;2023-03-21T11:38:51;10.10;99.90
14749;DHT22;7466;53.574;9.976;2023-03-21T11:41:22;10.20;99.90
14749;DHT22;7466;53.574;9.976;2023-03-21T11:43:53;10.20;99.90
14749;DHT22;7466;53.574;9.976;2023-03-21T11:46:23;10.20;99.90
14749;DHT22;7466;53.574;9.976;2023-03-21T11:48:50;10.20;99.90
14749;DHT22;7466;53.574;9.976;2023-03-21T11:51:24;10.20;99.90
14749;DHT22;7466;53.574;9.976;2023-03-21T11:54:00;10.20;99.90
14749;DHT22;7466;53.574;9.976;2023-03-21T11:56:33;10.20;99.90
14749;DHT22;7466;53.574;9.976;2023-03-21T11:59:17;10.20;99.90
14749;DHT22;7466;53.574;9.976;2023-03-21T12:01:55;10.20;99.90
14749;DHT22;7466;53.574;9.976;2023-03-21T12:04:39;10.30;99.90
14749;DHT22;7466;53.574;9.976;2023-03-21T12:07:24;10.40;99.90
14749;DHT22;7466;53.574;9.976;2023-03-21T12:10:05;10.40;99.90
14749;DHT22;7466;53.574;9.976;2023-03-21T12:12:41;10.50;99.90
14749;DHT22;7466;53.574;9.976;2023-03-21T12:15:17;10.60;99.90
14749;DHT22;7466;53.574;9.976;2023-03-21T12:17:53;10.60;99.90
14749;DHT22;7466;53.574;9.976;2023-03-21T12:20:27;10.50;99.90
14749;DHT22;7466;53.574;9.976;2023-03-21T12:23:25;10.50;99.90
14749;DHT22;7466;53.574;9.976;2023-03-21T12:25:59;10.60;99.90
14749;DHT22;7466;53.574;9.976;2023-03-21T12:28:37;10.50;99.90
14749;DHT22;7466;53.574;9.976;2023-03-21T12:31:15;10.60;99.90
14749;DHT22;7466;53.574;9.976;2023-03-21T12:33:55;10.60;99.90
14749;DHT22;7466;53.574;9.976;2023-03-21T12:39:25;10.60;99.90
14749;DHT22;7466;53.574;9.976;2023-03-21T12:42:00;10.50;99.90
14749;DHT22;7466;53.574;9.976;2023-03-21T12:44:32;10.40;99.90
14749;DHT22;7466;53.574;9.976;2023-03-21T12:47:04;10.40;99.90
14749;DHT22;7466;53.574;9.976;2023-03-21T12:49:36;10.50;99.90
14749;DHT22;7466;53.574;9.976;2023-03-21T12:52:07;10.50;99.90
14749;DHT22;7466;53.574;9.976;2023-03-21T12:54:38;10.50;99.90
14749;DHT22;7466;53.574;9.976;2023-03-21T12:57:07;10.30;99.90
14749;DHT22;7466;53.574;9.976;2023-03-21T12:59:39;10.40;99.90
14749;DHT22;7466;53.574;9.976;2023-03-21T13:02:19;10.30;99.90
14749;DHT22;7466;53.574;9.976;2023-03-21T13:05:03;10.40;99.90
14749;DHT22;7466;53.574;9.976;2023-03-21T13:07:34;10.40;99.90
14749;DHT22;7466;53.574;9.976;2023-03-21T13:10:11;10.50;99.90
14749;DHT22;7466;53.574;9.976;2023-03-21T13:12:44;10.40;99.90
14749;DHT22;7466;53.574;9.976;2023-03-21T13:15:26;10.50;99.90
14749;DHT22;7466;53.574;9.976;2023-03-21T13:18:01;10.50;99.90
14749;DHT22;7466;53.574;9.976;2023-03-21T13:20:36;10.50;99.90
14749;DHT22;7466;53.574;9.976;2023-03-21T13:23:07;10.50;99.90
14749;DHT22;7466;53.574;9.976;2023-03-21T13:25:40;10.50;99.90
14749;DHT22;7466;53.574;9.976;2023-03-21T13:28:17;10.50;99.90
14749;DHT22;7466;53.574;9.976;2023-03-21T13:30:44;10.50;99.90
14749;DHT22;7466;53.574;9.976;2023-03-21T13:33:16;10.60;99.90
14749;DHT22;7466;53.574;9.976;2023-03-21T13:35:54;10.60;99.90
14749;DHT22;7466;53.574;9.976;2023-03-21T13:38:25;10.60;99.90
14749;DHT22;7466;53.574;9.976;2023-03-21T13:40:56;10.50;99.90
14749;DHT22;7466;53.574;9.976;2023-03-21T13:43:43;10.40;99.90
14749;DHT22;7466;53.574;9.976;2023-03-21T13:46:11;10.50;99.90
14749;DHT22;7466;53.574;9.976;2023-03-21T13:48:54;10.50;99.90
14749;DHT22;7466;53.574;9.976;2023-03-21T13:51:38;10.70;99.90
14749;DHT22;7466;53.574;9.976;2023-03-21T13:54:17;10.70;99.90
14749;DHT22;7466;53.574;9.976;2023-03-21T13:56:50;10.70;99.90
14749;DHT22;7466;53.574;9.976;2023-03-21T13:59:20;10.70;99.90
14749;DHT22;7466;53.574;9.976;2023-03-21T14:02:15;10.60;99.90
14749;DHT22;7466;53.574;9.976;2023-03-21T14:04:46;10.60;99.90
14749;DHT22;7466;53.574;9.976;2023-03-21T14:07:21;10.60;99.90
14749;DHT22;7466;53.574;9.976;2023-03-21T14:09:51;10.60;99.90
14749;DHT22;7466;53.574;9.976;2023-03-21T14:12:22;10.60;99.90
14749;DHT22;7466;53.574;9.976;2023-03-21T14:14:52;10.60;99.90
14749;DHT22;7466;53.574;9.976;2023-03-21T14:17:24;10.60;99.90
14749;DHT22;7466;53.574;9.976;2023-03-21T14:19:54;10.50;99.90
14749;DHT22;7466;53.574;9.976;2023-03-21T14:22:22;10.50;99.90
14749;DHT22;7466;53.574;9.976;2023-03-21T14:24:54;10.40;99.90
14749;DHT22;7466;53.574;9.976;2023-03-21T14:27:21;10.40;99.90
14749;DHT22;7466;53.574;9.976;2023-03-21T14:29:50;10.40;99.90
14749;DHT22;7466;53.574;9.976;2023-03-21T14:32:21;10.40;99.90
14749;DHT22;7466;53.574;9.976;2023-03-21T14:34:48;10.40;99.90
14749;DHT22;7466;53.574;9.976;2023-03-21T14:37:28;10.30;99.90
14749;DHT22;7466;53.574;9.976;2023-03-21T14:39:57;10.40;99.90
14749;DHT22;7466;53.574;9.976;2023-03-21T14:42:25;10.40;99.90
14749;DHT22;7466;53.574;9.976;2023-03-21T14:44:52;10.40;99.90
14749;DHT22;7466;53.574;9.976;2023-03-21T14:47:25;10.30;99.90
14749;DHT22;7466;53.574;9.976;2023-03-21T14:49:52;10.30;99.90
14749;DHT22;7466;53.574;9.976;2023-03-21T14:52:22;10.30;99.90
14749;DHT22;7466;53.574;9.976;2023-03-21T14:54:51;10.30;99.90
14749;DHT22;7466;53.574;9.976;2023-03-21T14:57:20;10.30;99.90
14749;DHT22;7466;53.574;9.976;2023-03-21T14:59:49;10.40;99.90
14749;DHT22;7466;53.574;9.976;2023-03-21T15:02:19;10.40;99.90
14749;DHT22;7466;53.574;9.976;2023-03-21T15:04:50;10.40;99.90
14749;DHT22;7466;53.574;9.976;2023-03-21T15:07:26;10.40;99.90
14749;DHT22;7466;53.574;9.976;2023-03-21T15:09:57;10.40;99.90
14749;DHT22;7466;53.574;9.976;2023-03-21T15:12:25;10.40;99.90
14749;DHT22;7466;53.574;9.976;2023-03-21T15:14:53;10.50;99.90
14749;DHT22;7466;53.574;9.976;2023-03-21T15:17:21;10.50;99.90
14749;DHT22;7466;53.574;9.976;2023-03-21T15:19:48;10.50;99.90
14749;DHT22;7466;53.574;9.976;2023-03-21T15:22:18;10.40;99.90
14749;DHT22;7466;53.574;9.976;2023-03-21T15:24:49;10.40;99.90
14749;DHT22;7466;53.574;9.976;2023-03-21T15:27:19;10.40;99.90
14749;DHT22;7466;53.574;9.976;2023-03-21T15:29:50;10.30;99.90
14749;DHT22;7466;53.574;9.976;2023-03-21T15:32:20;10.30;99.90
14749;DHT22;7466;53.574;9.976;2023-03-21T15:34:48;10.30;99.90
14749;DHT22;7466;53.574;9.976;2023-03-21T15:37:20;10.40;99.90
14749;DHT22;7466;53.574;9.976;2023-03-21T15:39:47;10.30;99.90
14749;DHT22;7466;53.574;9.976;2023-03-21T15:42:26;10.30;99.90
14749;DHT22;7466;53.574;9.976;2023-03-21T15:44:55;10.20;99.90
14749;DHT22;7466;53.574;9.976;2023-03-21T15:47:49;10.20;99.90
14749;DHT22;7466;53.574;9.976;2023-03-21T15:50:24;10.30;99.90
14749;DHT22;7466;53.574;9.976;2023-03-21T15:52:52;10.30;99.90
14749;DHT22;7466;53.574;9.976;2023-03-21T15:55:22;10.20;99.90
14749;DHT22;7466;53.574;9.976;2023-03-21T15:57:58;10.20;99.90
14749;DHT22;7466;53.574;9.976;2023-03-21T16:00:34;10.10;99.90
14749;DHT22;7466;53.574;9.976;2023-03-21T16:03:06;10.10;99.90
14749;DHT22;7466;53.574;9.976;2023-03-21T16:05:35;10.10;99.90
14749;DHT22;7466;53.574;9.976;2023-03-21T16:08:05;10.00;99.90
14749;DHT22;7466;53.574;9.976;2023-03-21T16:10:44;10.00;99.90
14749;DHT22;7466;53.574;9.976;2023-03-21T16:13:14;10.00;99.90
14749;DHT22;7466;53.574;9.976;2023-03-21T16:15:42;10.00;99.90
14749;DHT22;7466;53.574;9.976;2023-03-21T16:18:13;9.90;99.90
14749;DHT22;7466;53.574;9.976;2023-03-21T16:20:42;9.90;99.90
14749;DHT22;7466;53.574;9.976;2023-03-21T16:23:10;9.90;99.90
14749;DHT22;7466;53.574;9.976;2023-03-21T16:25:37;9.80;99.90
14749;DHT22;7466;53.574;9.976;2023-03-21T16:28:09;9.90;99.90